sensor_id;sensor_type;location;lat;lon;timestamp;pressure;altitude;pressure_sealevel;temperature;humidity
62038;BME280;47991;42.974;12.082;2022-09-19T00:01:52;97668.38;;;11.53;66.43
62038;BME280;47991;42.974;12.082;2022-09-19T00:04:24;97667.59;;;11.45;66.13
62038;BME280;47991;42.974;12.082;2022-09-19T00:06:53;97664.61;;;11.38;65.89
62038;BME280;47991;42.974;12.082;2022-09-19T00:09:24;97661.92;;;11.40;66.40
62038;BME280;47991;42.974;12.082;2022-09-19T00:11:52;97657.52;;;11.39;66.66
62038;BME280;47991;42.974;12.082;2022-09-19T00:14:24;97655.19;;;11.34;66.57
62038;BME280;47991;42.974;12.082;2022-09-19T00:16:58;97655.16;;;11.30;66.81
62038;BME280;47991;42.974;12.082;2022-09-19T00:19:26;97655.08;;;11.22;67.69
62038;BME280;47991;42.974;12.082;2022-09-19T00:21:57;97655.27;;;11.16;67.43
62038;BME280;47991;42.974;12.082;2022-09-19T00:24:24;97650.34;;;11.15;67.70
62038;BME280;47991;42.974;12.082;2022-09-19T00:27:13;97649.11;;;11.09;67.16
62038;BME280;47991;42.974;12.082;2022-09-19T00:29:41;97642.70;;;11.11;67.25
62038;BME280;47991;42.974;12.082;2022-09-19T00:32:10;97638.50;;;11.15;67.19
62038;BME280;47991;42.974;12.082;2022-09-19T00:34:44;97635.10;;;11.16;67.34
62038;BME280;47991;42.974;12.082;2022-09-19T00:37:13;97627.20;;;11.14;67.56
62038;BME280;47991;42.974;12.082;2022-09-19T00:39:42;97624.66;;;11.10;67.76
62038;BME280;47991;42.974;12.082;2022-09-19T00:42:21;97623.17;;;11.08;67.89
62038;BME280;47991;42.974;12.082;2022-09-19T00:44:58;97621.45;;;11.06;67.75
62038;BME280;47991;42.974;12.082;2022-09-19T00:47:34;97616.41;;;11.08;67.86
62038;BME280;47991;42.974;12.082;2022-09-19T00:50:07;97615.42;;;11.11;68.39
62038;BME280;47991;42.974;12.082;2022-09-19T00:53:15;97611.72;;;11.11;67.44
62038;BME280;47991;42.974;12.082;2022-09-19T00:55:43;97605.53;;;11.00;67.96
62038;BME280;47991;42.974;12.082;2022-09-19T00:58:16;97601.61;;;10.91;68.18
62038;BME280;47991;42.974;12.082;2022-09-19T01:00:46;97601.45;;;10.84;68.68
62038;BME280;47991;42.974;12.082;2022-09-19T01:03:13;97601.01;;;10.82;69.06
62038;BME280;47991;42.974;12.082;2022-09-19T01:06:45;97607.75;;;10.81;68.85
62038;BME280;47991;42.974;12.082;2022-09-19T01:09:13;97608.49;;;10.85;68.44
62038;BME280;47991;42.974;12.082;2022-09-19T01:17:50;97602.28;;;10.97;69.04
62038;BME280;47991;42.974;12.082;2022-09-19T01:28:35;97590.48;;;11.00;69.75
62038;BME280;47991;42.974;12.082;2022-09-19T01:31:26;97587.05;;;11.03;69.44
62038;BME280;47991;42.974;12.082;2022-09-19T01:34:12;97587.08;;;11.08;69.24
62038;BME280;47991;42.974;12.082;2022-09-19T01:39:39;97577.40;;;11.11;68.72
62038;BME280;47991;42.974;12.082;2022-09-19T01:42:12;97577.12;;;11.14;69.36
62038;BME280;47991;42.974;12.082;2022-09-19T01:44:40;97572.86;;;11.14;69.36
62038;BME280;47991;42.974;12.082;2022-09-19T01:53:13;97567.61;;;10.98;70.66
62038;BME280;47991;42.974;12.082;2022-09-19T01:56:55;97571.05;;;10.89;70.39
62038;BME280;47991;42.974;12.082;2022-09-19T02:01:45;97560.63;;;10.83;69.98
62038;BME280;47991;42.974;12.082;2022-09-19T02:04:25;97559.18;;;10.79;70.01
62038;BME280;47991;42.974;12.082;2022-09-19T02:07:10;97553.67;;;10.80;70.66
62038;BME280;47991;42.974;12.082;2022-09-19T02:09:53;97551.34;;;10.75;70.02
62038;BME280;47991;42.974;12.082;2022-09-19T02:12:25;97545.30;;;10.82;69.96
62038;BME280;47991;42.974;12.082;2022-09-19T02:14:55;97547.38;;;10.88;70.93
62038;BME280;47991;42.974;12.082;2022-09-19T02:17:55;97542.52;;;10.85;72.18
62038;BME280;47991;42.974;12.082;2022-09-19T02:20:29;97540.80;;;10.89;70.30
62038;BME280;47991;42.974;12.082;2022-09-19T02:23:16;97536.16;;;10.90;70.42
62038;BME280;47991;42.974;12.082;2022-09-19T02:25:46;97536.41;;;10.78;73.16
62038;BME280;47991;42.974;12.082;2022-09-19T02:28:24;97533.54;;;10.73;71.19
62038;BME280;47991;42.974;12.082;2022-09-19T02:30:56;97533.95;;;10.72;72.32
62038;BME280;47991;42.974;12.082;2022-09-19T02:33:25;97532.01;;;10.72;71.33
62038;BME280;47991;42.974;12.082;2022-09-19T02:39:20;97510.89;;;10.85;70.98
62038;BME280;47991;42.974;12.082;2022-09-19T02:42:17;97504.37;;;10.84;70.89
62038;BME280;47991;42.974;12.082;2022-09-19T02:47:56;97504.35;;;10.85;71.08
62038;BME280;47991;42.974;12.082;2022-09-19T02:53:22;97506.05;;;10.50;72.46
62038;BME280;47991;42.974;12.082;2022-09-19T02:56:00;97508.89;;;10.38;72.94
62038;BME280;47991;42.974;12.082;2022-09-19T02:58:33;97509.55;;;10.38;72.11
62038;BME280;47991;42.974;12.082;2022-09-19T03:01:16;97508.98;;;10.40;72.32
62038;BME280;47991;42.974;12.082;2022-09-19T03:03:56;97515.22;;;10.39;72.75
62038;BME280;47991;42.974;12.082;2022-09-19T03:07:23;97517.69;;;10.33;73.28
62038;BME280;47991;42.974;12.082;2022-09-19T03:10:12;97524.92;;;10.33;71.62
62038;BME280;47991;42.974;12.082;2022-09-19T03:13:05;97528.68;;;10.19;73.20
62038;BME280;47991;42.974;12.082;2022-09-19T03:18:12;97532.10;;;10.06;73.57
62038;BME280;47991;42.974;12.082;2022-09-19T03:20:49;97542.06;;;9.91;72.54
62038;BME280;47991;42.974;12.082;2022-09-19T03:23:23;97539.09;;;9.85;72.58
62038;BME280;47991;42.974;12.082;2022-09-19T03:25:54;97533.61;;;9.84;72.80
62038;BME280;47991;42.974;12.082;2022-09-19T03:28:21;97535.80;;;9.88;73.00
62038;BME280;47991;42.974;12.082;2022-09-19T03:30:51;97533.98;;;9.89;72.87
62038;BME280;47991;42.974;12.082;2022-09-19T03:33:26;97538.55;;;9.90;72.80
62038;BME280;47991;42.974;12.082;2022-09-19T03:35:54;97533.23;;;9.91;72.47
62038;BME280;47991;42.974;12.082;2022-09-19T03:38:24;97534.11;;;9.97;72.24
62038;BME280;47991;42.974;12.082;2022-09-19T03:40:52;97527.42;;;9.97;72.39
62038;BME280;47991;42.974;12.082;2022-09-19T03:43:20;97527.85;;;10.00;72.04
62038;BME280;47991;42.974;12.082;2022-09-19T03:45:47;97524.91;;;9.98;72.47
62038;BME280;47991;42.974;12.082;2022-09-19T03:48:15;97522.13;;;10.02;72.72
62038;BME280;47991;42.974;12.082;2022-09-19T03:50:43;97520.33;;;10.04;73.09
62038;BME280;47991;42.974;12.082;2022-09-19T03:53:13;97515.91;;;10.04;72.78
62038;BME280;47991;42.974;12.082;2022-09-19T03:55:41;97516.39;;;10.05;72.74
62038;BME280;47991;42.974;12.082;2022-09-19T03:58:12;97513.81;;;10.15;73.01
62038;BME280;47991;42.974;12.082;2022-09-19T04:00:40;97514.54;;;10.14;72.47
62038;BME280;47991;42.974;12.082;2022-09-19T04:03:09;97512.86;;;10.11;72.68
62038;BME280;47991;42.974;12.082;2022-09-19T04:05:36;97514.69;;;10.09;72.86
62038;BME280;47991;42.974;12.082;2022-09-19T04:08:05;97515.79;;;10.14;72.35
62038;BME280;47991;42.974;12.082;2022-09-19T04:10:32;97515.23;;;10.14;72.48
62038;BME280;47991;42.974;12.082;2022-09-19T04:13:00;97518.25;;;10.14;72.85
62038;BME280;47991;42.974;12.082;2022-09-19T04:15:29;97517.94;;;10.13;72.78
62038;BME280;47991;42.974;12.082;2022-09-19T04:17:58;97518.70;;;10.05;73.02
62038;BME280;47991;42.974;12.082;2022-09-19T04:20:26;97518.33;;;10.00;73.12
62038;BME280;47991;42.974;12.082;2022-09-19T04:23:14;97515.56;;;9.98;73.93
62038;BME280;47991;42.974;12.082;2022-09-19T04:25:59;97518.74;;;9.98;73.34
62038;BME280;47991;42.974;12.082;2022-09-19T04:28:39;97515.26;;;10.02;73.45
62038;BME280;47991;42.974;12.082;2022-09-19T04:31:10;97507.84;;;10.07;73.55
62038;BME280;47991;42.974;12.082;2022-09-19T04:33:40;97505.98;;;10.17;73.60
62038;BME280;47991;42.974;12.082;2022-09-19T04:36:08;97504.59;;;10.27;73.63
62038;BME280;47991;42.974;12.082;2022-09-19T04:38:36;97505.98;;;10.28;76.30
62038;BME280;47991;42.974;12.082;2022-09-19T04:41:09;97504.14;;;10.13;75.07
62038;BME280;47991;42.974;12.082;2022-09-19T04:43:38;97499.77;;;10.12;74.60
62038;BME280;47991;42.974;12.082;2022-09-19T04:46:25;97497.04;;;10.15;74.50
62038;BME280;47991;42.974;12.082;2022-09-19T04:48:58;97498.77;;;10.21;74.32
62038;BME280;47991;42.974;12.082;2022-09-19T04:51:30;97498.67;;;10.30;74.34
62038;BME280;47991;42.974;12.082;2022-09-19T04:53:59;97502.38;;;10.24;76.40
62038;BME280;47991;42.974;12.082;2022-09-19T04:56:28;97501.89;;;10.23;75.27
62038;BME280;47991;42.974;12.082;2022-09-19T04:58:56;97508.33;;;10.21;77.38
62038;BME280;47991;42.974;12.082;2022-09-19T05:01:26;97508.87;;;10.09;77.12
62038;BME280;47991;42.974;12.082;2022-09-19T05:03:54;97514.17;;;10.14;75.97
62038;BME280;47991;42.974;12.082;2022-09-19T05:06:22;97512.21;;;10.15;76.38
62038;BME280;47991;42.974;12.082;2022-09-19T05:08:50;97518.36;;;10.16;75.91
62038;BME280;47991;42.974;12.082;2022-09-19T05:11:40;97520.48;;;10.28;75.28
62038;BME280;47991;42.974;12.082;2022-09-19T05:14:09;97516.70;;;10.36;74.92
62038;BME280;47991;42.974;12.082;2022-09-19T05:16:42;97517.80;;;10.46;74.43
62038;BME280;47991;42.974;12.082;2022-09-19T05:19:09;97518.45;;;10.48;75.04
62038;BME280;47991;42.974;12.082;2022-09-19T05:21:38;97518.46;;;10.47;74.65
62038;BME280;47991;42.974;12.082;2022-09-19T05:24:06;97516.47;;;10.50;74.62
62038;BME280;47991;42.974;12.082;2022-09-19T05:26:35;97515.55;;;10.56;74.31
62038;BME280;47991;42.974;12.082;2022-09-19T05:29:10;97518.73;;;10.61;74.26
62038;BME280;47991;42.974;12.082;2022-09-19T05:31:52;97520.44;;;10.63;74.12
62038;BME280;47991;42.974;12.082;2022-09-19T05:34:37;97522.55;;;10.74;74.20
62038;BME280;47991;42.974;12.082;2022-09-19T05:37:04;97524.67;;;11.01;73.88
62038;BME280;47991;42.974;12.082;2022-09-19T05:39:41;97520.13;;;11.15;73.35
62038;BME280;47991;42.974;12.082;2022-09-19T05:42:43;97523.13;;;11.15;73.61
62038;BME280;47991;42.974;12.082;2022-09-19T05:45:14;97524.77;;;11.49;73.10
62038;BME280;47991;42.974;12.082;2022-09-19T05:47:42;97523.86;;;12.70;71.10
62038;BME280;47991;42.974;12.082;2022-09-19T05:50:11;97519.48;;;14.28;67.15
62038;BME280;47991;42.974;12.082;2022-09-19T05:52:41;97514.05;;;15.32;62.44
62038;BME280;47991;42.974;12.082;2022-09-19T05:55:29;97515.02;;;15.68;62.22
62038;BME280;47991;42.974;12.082;2022-09-19T05:58:07;97520.38;;;15.37;63.13
62038;BME280;47991;42.974;12.082;2022-09-19T06:00:36;97517.67;;;15.75;63.31
62038;BME280;47991;42.974;12.082;2022-09-19T06:03:06;97516.27;;;16.63;58.99
62038;BME280;47991;42.974;12.082;2022-09-19T06:05:40;97517.41;;;17.21;59.74
62038;BME280;47991;42.974;12.082;2022-09-19T06:08:07;97516.48;;;18.25;55.44
62038;BME280;47991;42.974;12.082;2022-09-19T06:10:37;97510.33;;;19.20;51.92
62038;BME280;47991;42.974;12.082;2022-09-19T06:13:06;97510.48;;;19.98;52.12
62038;BME280;47991;42.974;12.082;2022-09-19T06:15:34;97505.93;;;20.53;49.58
62038;BME280;47991;42.974;12.082;2022-09-19T06:18:01;97511.01;;;19.80;49.98
62038;BME280;47991;42.974;12.082;2022-09-19T06:20:43;97508.81;;;18.77;51.06
62038;BME280;47991;42.974;12.082;2022-09-19T06:23:16;97513.20;;;18.17;54.15
62038;BME280;47991;42.974;12.082;2022-09-19T06:25:44;97515.42;;;17.43;54.55
62038;BME280;47991;42.974;12.082;2022-09-19T06:28:11;97513.04;;;17.17;56.42
62038;BME280;47991;42.974;12.082;2022-09-19T06:30:45;97510.77;;;16.66;57.27
62038;BME280;47991;42.974;12.082;2022-09-19T06:33:20;97513.86;;;16.17;57.88
62038;BME280;47991;42.974;12.082;2022-09-19T06:36:11;97510.59;;;15.98;60.10
62038;BME280;47991;42.974;12.082;2022-09-19T06:38:39;97509.55;;;15.81;60.77
62038;BME280;47991;42.974;12.082;2022-09-19T06:41:26;97503.31;;;16.30;60.12
62038;BME280;47991;42.974;12.082;2022-09-19T06:44:23;97501.76;;;16.49;58.98
62038;BME280;47991;42.974;12.082;2022-09-19T06:47:00;97497.13;;;16.74;59.19
62038;BME280;47991;42.974;12.082;2022-09-19T06:49:38;97490.16;;;17.05;57.55
62038;BME280;47991;42.974;12.082;2022-09-19T06:52:24;97488.14;;;17.39;54.52
62038;BME280;47991;42.974;12.082;2022-09-19T06:54:54;97490.30;;;17.27;55.29
62038;BME280;47991;42.974;12.082;2022-09-19T06:57:22;97495.10;;;17.42;54.65
62038;BME280;47991;42.974;12.082;2022-09-19T06:59:50;97494.77;;;18.09;53.19
62038;BME280;47991;42.974;12.082;2022-09-19T07:02:19;97495.02;;;18.08;52.50
62038;BME280;47991;42.974;12.082;2022-09-19T07:04:48;97496.81;;;17.93;53.24
62038;BME280;47991;42.974;12.082;2022-09-19T07:07:35;97497.02;;;17.96;54.22
62038;BME280;47991;42.974;12.082;2022-09-19T07:10:03;97498.85;;;17.63;55.69
62038;BME280;47991;42.974;12.082;2022-09-19T07:12:32;97501.79;;;17.50;55.06
62038;BME280;47991;42.974;12.082;2022-09-19T07:15:04;97502.99;;;17.36;54.00
62038;BME280;47991;42.974;12.082;2022-09-19T07:17:34;97502.36;;;17.13;54.58
62038;BME280;47991;42.974;12.082;2022-09-19T07:20:02;97504.65;;;16.95;54.73
62038;BME280;47991;42.974;12.082;2022-09-19T07:22:37;97507.63;;;17.02;55.79
62038;BME280;47991;42.974;12.082;2022-09-19T07:25:28;97503.21;;;16.99;56.22
62038;BME280;47991;42.974;12.082;2022-09-19T07:28:01;97504.82;;;16.92;57.71
62038;BME280;47991;42.974;12.082;2022-09-19T07:30:30;97508.14;;;16.88;57.54
62038;BME280;47991;42.974;12.082;2022-09-19T07:33:01;97504.27;;;16.96;56.78
62038;BME280;47991;42.974;12.082;2022-09-19T07:35:33;97509.58;;;17.39;56.89
62038;BME280;47991;42.974;12.082;2022-09-19T07:38:02;97510.95;;;17.70;55.66
62038;BME280;47991;42.974;12.082;2022-09-19T07:40:41;97514.86;;;17.70;55.22
62038;BME280;47991;42.974;12.082;2022-09-19T07:43:21;97510.54;;;18.26;53.85
62038;BME280;47991;42.974;12.082;2022-09-19T07:46:08;97505.63;;;18.82;52.61
62038;BME280;47991;42.974;12.082;2022-09-19T07:48:43;97506.80;;;18.67;51.88
62038;BME280;47991;42.974;12.082;2022-09-19T07:51:24;97506.98;;;19.03;51.76
62038;BME280;47991;42.974;12.082;2022-09-19T07:53:54;97502.08;;;19.73;49.51
62038;BME280;47991;42.974;12.082;2022-09-19T07:56:23;97502.59;;;20.59;47.77
62038;BME280;47991;42.974;12.082;2022-09-19T07:58:51;97508.89;;;20.42;48.70
62038;BME280;47991;42.974;12.082;2022-09-19T08:01:19;97516.42;;;19.99;49.26
62038;BME280;47991;42.974;12.082;2022-09-19T08:04:06;97522.27;;;19.58;50.03
62038;BME280;47991;42.974;12.082;2022-09-19T08:06:49;97526.35;;;19.45;50.81
62038;BME280;47991;42.974;12.082;2022-09-19T08:09:17;97526.62;;;19.31;50.46
62038;BME280;47991;42.974;12.082;2022-09-19T08:12:00;97528.39;;;19.10;51.14
62038;BME280;47991;42.974;12.082;2022-09-19T08:14:28;97528.74;;;19.10;51.72
62038;BME280;47991;42.974;12.082;2022-09-19T08:16:57;97530.77;;;19.09;51.51
62038;BME280;47991;42.974;12.082;2022-09-19T08:19:25;97533.05;;;19.01;52.49
62038;BME280;47991;42.974;12.082;2022-09-19T08:21:53;97533.39;;;19.04;52.71
62038;BME280;47991;42.974;12.082;2022-09-19T08:24:20;97531.76;;;19.05;52.45
62038;BME280;47991;42.974;12.082;2022-09-19T08:26:49;97532.99;;;18.97;52.50
62038;BME280;47991;42.974;12.082;2022-09-19T08:29:17;97535.40;;;19.01;52.58
62038;BME280;47991;42.974;12.082;2022-09-19T08:32:05;97530.81;;;19.24;52.25
62038;BME280;47991;42.974;12.082;2022-09-19T08:34:34;97527.41;;;19.54;51.85
62038;BME280;47991;42.974;12.082;2022-09-19T08:37:02;97528.90;;;19.77;52.09
62038;BME280;47991;42.974;12.082;2022-09-19T08:39:32;97525.96;;;19.85;51.52
62038;BME280;47991;42.974;12.082;2022-09-19T08:42:20;97525.55;;;19.91;51.73
62038;BME280;47991;42.974;12.082;2022-09-19T08:47:46;97526.39;;;19.74;51.38
62038;BME280;47991;42.974;12.082;2022-09-19T08:50:19;97530.91;;;20.07;51.20
62038;BME280;47991;42.974;12.082;2022-09-19T08:52:52;97535.23;;;20.02;51.78
62038;BME280;47991;42.974;12.082;2022-09-19T08:55:29;97530.44;;;20.04;50.84
62038;BME280;47991;42.974;12.082;2022-09-19T08:58:15;97534.38;;;20.06;50.64
62038;BME280;47991;42.974;12.082;2022-09-19T09:01:05;97533.55;;;20.33;50.87
62038;BME280;47991;42.974;12.082;2022-09-19T09:03:56;97534.27;;;20.61;49.98
62038;BME280;47991;42.974;12.082;2022-09-19T09:06:37;97533.04;;;20.48;49.80
62038;BME280;47991;42.974;12.082;2022-09-19T09:23:13;97549.13;;;20.64;49.81
62038;BME280;47991;42.974;12.082;2022-09-19T09:26:25;97551.34;;;20.43;51.25
62038;BME280;47991;42.974;12.082;2022-09-19T09:29:05;97549.13;;;20.21;51.30
62038;BME280;47991;42.974;12.082;2022-09-19T09:35:04;97549.38;;;20.23;51.74
62038;BME280;47991;42.974;12.082;2022-09-19T09:37:44;97544.58;;;20.32;51.27
62038;BME280;47991;42.974;12.082;2022-09-19T09:40:59;97545.36;;;20.33;51.63
62038;BME280;47991;42.974;12.082;2022-09-19T09:43:26;97544.38;;;20.37;50.82
62038;BME280;47991;42.974;12.082;2022-09-19T09:45:59;97546.64;;;20.38;51.97
62038;BME280;47991;42.974;12.082;2022-09-19T09:48:38;97540.83;;;20.49;51.46
62038;BME280;47991;42.974;12.082;2022-09-19T09:56:29;97532.77;;;21.23;49.59
62038;BME280;47991;42.974;12.082;2022-09-19T09:59:22;97533.58;;;21.36;48.97
62038;BME280;47991;42.974;12.082;2022-09-19T10:05:54;97545.17;;;21.49;48.09
62038;BME280;47991;42.974;12.082;2022-09-19T10:08:26;97548.07;;;21.39;48.62
62038;BME280;47991;42.974;12.082;2022-09-19T10:11:13;97553.29;;;21.22;48.44
62038;BME280;47991;42.974;12.082;2022-09-19T10:13:53;97550.31;;;21.24;48.68
62038;BME280;47991;42.974;12.082;2022-09-19T10:16:33;97549.32;;;21.13;48.06
62038;BME280;47991;42.974;12.082;2022-09-19T10:19:24;97549.53;;;21.00;48.01
62038;BME280;47991;42.974;12.082;2022-09-19T10:21:55;97547.70;;;20.96;48.18
62038;BME280;47991;42.974;12.082;2022-09-19T10:24:47;97549.61;;;20.82;48.11
62038;BME280;47991;42.974;12.082;2022-09-19T10:27:28;97551.43;;;20.46;48.97
62038;BME280;47991;42.974;12.082;2022-09-19T10:30:27;97552.32;;;20.21;49.61
62038;BME280;47991;42.974;12.082;2022-09-19T10:33:16;97550.76;;;20.26;50.05
62038;BME280;47991;42.974;12.082;2022-09-19T10:36:03;97549.20;;;20.28;50.26
62038;BME280;47991;42.974;12.082;2022-09-19T10:38:47;97545.41;;;20.25;50.54
62038;BME280;47991;42.974;12.082;2022-09-19T10:41:17;97550.18;;;20.19;51.50
62038;BME280;47991;42.974;12.082;2022-09-19T10:44:01;97553.14;;;20.15;51.92
62038;BME280;47991;42.974;12.082;2022-09-19T10:46:41;97558.59;;;20.01;52.51
62038;BME280;47991;42.974;12.082;2022-09-19T10:49:37;97563.77;;;19.59;53.89
62038;BME280;47991;42.974;12.082;2022-09-19T10:52:07;97561.86;;;19.45;54.63
62038;BME280;47991;42.974;12.082;2022-09-19T10:54:38;97565.45;;;19.45;55.01
62038;BME280;47991;42.974;12.082;2022-09-19T11:00:02;97566.80;;;19.41;56.50
62038;BME280;47991;42.974;12.082;2022-09-19T11:02:32;97564.27;;;19.36;57.70
62038;BME280;47991;42.974;12.082;2022-09-19T11:05:03;97564.84;;;19.46;58.05
62038;BME280;47991;42.974;12.082;2022-09-19T11:07:50;97562.55;;;19.56;58.36
62038;BME280;47991;42.974;12.082;2022-09-19T11:10:37;97557.25;;;19.31;60.85
62038;BME280;47991;42.974;12.082;2022-09-19T11:13:17;97556.75;;;19.89;58.19
62038;BME280;47991;42.974;12.082;2022-09-19T11:26:41;97553.92;;;21.02;57.39
62038;BME280;47991;42.974;12.082;2022-09-19T11:29:44;97544.95;;;21.42;55.82
62038;BME280;47991;42.974;12.082;2022-09-19T11:32:31;97540.44;;;21.57;55.89
62038;BME280;47991;42.974;12.082;2022-09-19T11:40:54;97533.20;;;21.76;55.03
62038;BME280;47991;42.974;12.082;2022-09-19T11:43:59;97531.48;;;21.77;54.88
62038;BME280;47991;42.974;12.082;2022-09-19T11:46:37;97529.91;;;21.77;53.51
62038;BME280;47991;42.974;12.082;2022-09-19T12:04:21;97520.50;;;21.84;52.82
62038;BME280;47991;42.974;12.082;2022-09-19T12:07:33;97519.55;;;22.01;53.14
62038;BME280;47991;42.974;12.082;2022-09-19T12:10:14;97517.59;;;22.19;52.32
62038;BME280;47991;42.974;12.082;2022-09-19T12:15:46;97514.48;;;22.72;51.92
62038;BME280;47991;42.974;12.082;2022-09-19T12:18:28;97506.43;;;23.17;51.65
62038;BME280;47991;42.974;12.082;2022-09-19T12:21:02;97500.70;;;23.62;49.77
62038;BME280;47991;42.974;12.082;2022-09-19T12:23:43;97500.62;;;23.69;50.26
62038;BME280;47991;42.974;12.082;2022-09-19T12:27:21;97495.37;;;24.09;49.97
62038;BME280;47991;42.974;12.082;2022-09-19T12:31:57;97490.59;;;23.79;49.68
62038;BME280;47991;42.974;12.082;2022-09-19T12:34:38;97481.37;;;23.68;48.60
62038;BME280;47991;42.974;12.082;2022-09-19T12:37:38;97479.60;;;23.51;49.39
62038;BME280;47991;42.974;12.082;2022-09-19T12:42:57;97470.67;;;23.41;48.94
62038;BME280;47991;42.974;12.082;2022-09-19T12:48:39;97468.04;;;23.30;49.05
62038;BME280;47991;42.974;12.082;2022-09-19T12:51:46;97463.73;;;22.88;50.91
62038;BME280;47991;42.974;12.082;2022-09-19T12:54:21;97463.98;;;22.59;50.53
62038;BME280;47991;42.974;12.082;2022-09-19T12:57:02;97460.64;;;22.54;50.63
62038;BME280;47991;42.974;12.082;2022-09-19T12:59:32;97461.38;;;22.45;51.08
62038;BME280;47991;42.974;12.082;2022-09-19T13:02:14;97458.77;;;22.46;51.15
62038;BME280;47991;42.974;12.082;2022-09-19T13:04:52;97455.86;;;22.48;51.05
62038;BME280;47991;42.974;12.082;2022-09-19T13:07:33;97459.48;;;22.14;50.90
62038;BME280;47991;42.974;12.082;2022-09-19T13:12:57;97457.71;;;22.14;51.70
62038;BME280;47991;42.974;12.082;2022-09-19T13:15:34;97455.07;;;22.27;51.48
62038;BME280;47991;42.974;12.082;2022-09-19T13:18:05;97450.35;;;22.38;50.66
62038;BME280;47991;42.974;12.082;2022-09-19T13:20:56;97448.14;;;22.46;50.40
62038;BME280;47991;42.974;12.082;2022-09-19T13:23:45;97446.52;;;22.41;50.79
62038;BME280;47991;42.974;12.082;2022-09-19T13:26:16;97446.55;;;22.39;50.89
62038;BME280;47991;42.974;12.082;2022-09-19T13:28:52;97445.98;;;22.39;51.22
62038;BME280;47991;42.974;12.082;2022-09-19T13:33:54;97450.01;;;22.25;51.52
62038;BME280;47991;42.974;12.082;2022-09-19T13:38:54;97444.68;;;22.42;50.97
62038;BME280;47991;42.974;12.082;2022-09-19T13:44:28;97434.48;;;22.54;50.34
62038;BME280;47991;42.974;12.082;2022-09-19T13:49:42;97435.29;;;22.26;51.38
62038;BME280;47991;42.974;12.082;2022-09-19T13:52:24;97431.03;;;22.30;51.48
62038;BME280;47991;42.974;12.082;2022-09-19T13:57:26;97426.95;;;22.25;51.84
62038;BME280;47991;42.974;12.082;2022-09-19T14:00:30;97424.56;;;22.21;51.97
62038;BME280;47991;42.974;12.082;2022-09-19T14:05:47;97422.70;;;22.81;51.17
62038;BME280;47991;42.974;12.082;2022-09-19T14:08:31;97420.23;;;22.98;49.76
62038;BME280;47991;42.974;12.082;2022-09-19T14:11:01;97418.90;;;22.77;50.27
62038;BME280;47991;42.974;12.082;2022-09-19T14:13:38;97416.25;;;22.83;50.69
62038;BME280;47991;42.974;12.082;2022-09-19T14:16:27;97411.19;;;23.00;50.66
62038;BME280;47991;42.974;12.082;2022-09-19T14:18:57;97409.08;;;22.99;50.33
62038;BME280;47991;42.974;12.082;2022-09-19T14:24:09;97407.08;;;23.13;50.03
62038;BME280;47991;42.974;12.082;2022-09-19T14:26:50;97406.98;;;23.16;49.91
62038;BME280;47991;42.974;12.082;2022-09-19T14:37:40;97403.53;;;22.86;50.00
62038;BME280;47991;42.974;12.082;2022-09-19T14:40:47;97406.45;;;22.94;49.98
62038;BME280;47991;42.974;12.082;2022-09-19T14:43:35;97403.83;;;23.02;49.95
62038;BME280;47991;42.974;12.082;2022-09-19T14:46:37;97403.60;;;23.05;49.92
62038;BME280;47991;42.974;12.082;2022-09-19T14:49:20;97403.41;;;23.03;49.87
62038;BME280;47991;42.974;12.082;2022-09-19T14:51:59;97403.80;;;23.11;49.90
62038;BME280;47991;42.974;12.082;2022-09-19T14:54:30;97400.81;;;23.25;50.03
62038;BME280;47991;42.974;12.082;2022-09-19T14:57:15;97399.19;;;23.21;49.75
62038;BME280;47991;42.974;12.082;2022-09-19T14:59:44;97397.69;;;23.11;49.97
62038;BME280;47991;42.974;12.082;2022-09-19T15:04:41;97392.00;;;23.25;49.26
62038;BME280;47991;42.974;12.082;2022-09-19T15:07:10;97389.21;;;23.38;48.98
62038;BME280;47991;42.974;12.082;2022-09-19T15:09:52;97389.96;;;23.48;48.92
62038;BME280;47991;42.974;12.082;2022-09-19T15:12:31;97391.29;;;23.50;48.93
62038;BME280;47991;42.974;12.082;2022-09-19T15:15:03;97388.14;;;23.48;49.21
62038;BME280;47991;42.974;12.082;2022-09-19T15:17:34;97391.25;;;23.44;48.81
62038;BME280;47991;42.974;12.082;2022-09-19T15:25:15;97393.01;;;23.25;50.19
62038;BME280;47991;42.974;12.082;2022-09-19T15:27:58;97394.92;;;23.20;50.79
62038;BME280;47991;42.974;12.082;2022-09-19T15:30:31;97393.80;;;23.12;51.51
62038;BME280;47991;42.974;12.082;2022-09-19T15:33:19;97396.55;;;23.03;51.63
62038;BME280;47991;42.974;12.082;2022-09-19T15:35:49;97391.77;;;22.91;51.68
62038;BME280;47991;42.974;12.082;2022-09-19T15:38:36;97390.93;;;22.90;52.09
62038;BME280;47991;42.974;12.082;2022-09-19T15:41:05;97391.17;;;22.94;52.03
62038;BME280;47991;42.974;12.082;2022-09-19T15:43:45;97389.11;;;23.06;51.80
62038;BME280;47991;42.974;12.082;2022-09-19T15:49:00;97388.42;;;23.09;51.65
62038;BME280;47991;42.974;12.082;2022-09-19T15:52:14;97388.88;;;23.17;51.50
62038;BME280;47991;42.974;12.082;2022-09-19T15:54:23;97382.55;;;23.24;51.77
62038;BME280;47991;42.974;12.082;2022-09-19T15:56:57;97387.25;;;23.21;52.22
62038;BME280;47991;42.974;12.082;2022-09-19T15:59:42;97385.64;;;23.23;52.24
62038;BME280;47991;42.974;12.082;2022-09-19T16:02:18;97388.27;;;23.28;52.59
62038;BME280;47991;42.974;12.082;2022-09-19T16:07:47;97384.20;;;23.29;52.11
62038;BME280;47991;42.974;12.082;2022-09-19T16:10:37;97387.48;;;23.25;52.33
62038;BME280;47991;42.974;12.082;2022-09-19T16:16:01;97380.88;;;23.13;52.54
62038;BME280;47991;42.974;12.082;2022-09-19T16:18:46;97379.83;;;23.00;52.56
62038;BME280;47991;42.974;12.082;2022-09-19T16:21:16;97380.11;;;22.90;52.84